sensor_id;sensor_type;location;lat;lon;timestamp;P1;durP1;ratioP1;P2;durP2;ratioP2
25511;SDS011;13414;44.534;18.700;2023-04-28T00:01:35;48.63;;;29.02;;
25511;SDS011;13414;44.534;18.700;2023-04-28T00:04:02;57.55;;;29.33;;
25511;SDS011;13414;44.534;18.700;2023-04-28T00:06:30;53.22;;;30.02;;
25511;SDS011;13414;44.534;18.700;2023-04-28T00:08:57;52.47;;;29.48;;
25511;SDS011;13414;44.534;18.700;2023-04-28T00:11:26;60.72;;;32.55;;
25511;SDS011;13414;44.534;18.700;2023-04-28T00:13:53;55.97;;;32.17;;
25511;SDS011;13414;44.534;18.700;2023-04-28T00:16:21;46.22;;;26.52;;
25511;SDS011;13414;44.534;18.700;2023-04-28T00:18:48;43.15;;;25.60;;
25511;SDS011;13414;44.534;18.700;2023-04-28T00:21:16;42.83;;;23.85;;
25511;SDS011;13414;44.534;18.700;2023-04-28T00:23:43;36.95;;;20.98;;
25511;SDS011;13414;44.534;18.700;2023-04-28T00:26:11;34.40;;;20.90;;
25511;SDS011;13414;44.534;18.700;2023-04-28T00:28:42;39.00;;;21.00;;
25511;SDS011;13414;44.534;18.700;2023-04-28T00:31:10;37.05;;;20.95;;
25511;SDS011;13414;44.534;18.700;2023-04-28T00:33:37;45.63;;;23.27;;
25511;SDS011;13414;44.534;18.700;2023-04-28T00:36:05;36.30;;;20.50;;
25511;SDS011;13414;44.534;18.700;2023-04-28T00:38:33;31.08;;;18.92;;
25511;SDS011;13414;44.534;18.700;2023-04-28T00:41:01;32.58;;;16.80;;
25511;SDS011;13414;44.534;18.700;2023-04-28T00:43:28;31.50;;;18.40;;
25511;SDS011;13414;44.534;18.700;2023-04-28T00:45:58;29.88;;;18.55;;
25511;SDS011;13414;44.534;18.700;2023-04-28T00:48:26;28.60;;;17.92;;
25511;SDS011;13414;44.534;18.700;2023-04-28T00:50:54;29.85;;;18.73;;
25511;SDS011;13414;44.534;18.700;2023-04-28T00:53:21;30.85;;;18.65;;
25511;SDS011;13414;44.534;18.700;2023-04-28T00:55:49;34.35;;;18.98;;
25511;SDS011;13414;44.534;18.700;2023-04-28T00:58:21;37.85;;;23.67;;
25511;SDS011;13414;44.534;18.700;2023-04-28T01:00:49;30.10;;;19.02;;
25511;SDS011;13414;44.534;18.700;2023-04-28T01:03:18;49.40;;;28.67;;
25511;SDS011;13414;44.534;18.700;2023-04-28T01:05:45;33.65;;;19.67;;
25511;SDS011;13414;44.534;18.700;2023-04-28T01:08:13;29.23;;;18.65;;
25511;SDS011;13414;44.534;18.700;2023-04-28T01:10:42;29.92;;;18.30;;
25511;SDS011;13414;44.534;18.700;2023-04-28T01:13:19;29.80;;;18.15;;
25511;SDS011;13414;44.534;18.700;2023-04-28T01:15:47;27.90;;;17.60;;
25511;SDS011;13414;44.534;18.700;2023-04-28T01:18:15;29.25;;;18.77;;
25511;SDS011;13414;44.534;18.700;2023-04-28T01:20:45;30.67;;;19.08;;
25511;SDS011;13414;44.534;18.700;2023-04-28T01:23:12;31.23;;;20.73;;
25511;SDS011;13414;44.534;18.700;2023-04-28T01:25:41;31.20;;;20.42;;
25511;SDS011;13414;44.534;18.700;2023-04-28T01:28:10;31.85;;;21.85;;
25511;SDS011;13414;44.534;18.700;2023-04-28T01:30:37;34.15;;;21.88;;
25511;SDS011;13414;44.534;18.700;2023-04-28T01:33:07;32.17;;;21.33;;
25511;SDS011;13414;44.534;18.700;2023-04-28T01:35:34;39.60;;;25.15;;
25511;SDS011;13414;44.534;18.700;2023-04-28T01:38:02;37.88;;;21.88;;
25511;SDS011;13414;44.534;18.700;2023-04-28T01:40:29;37.65;;;24.17;;
25511;SDS011;13414;44.534;18.700;2023-04-28T01:42:59;39.53;;;24.25;;
25511;SDS011;13414;44.534;18.700;2023-04-28T01:45:28;39.80;;;24.60;;
25511;SDS011;13414;44.534;18.700;2023-04-28T01:47:56;37.63;;;24.10;;
25511;SDS011;13414;44.534;18.700;2023-04-28T01:50:23;36.78;;;22.35;;
25511;SDS011;13414;44.534;18.700;2023-04-28T01:52:52;33.85;;;21.88;;
25511;SDS011;13414;44.534;18.700;2023-04-28T01:55:20;26.08;;;18.13;;
25511;SDS011;13414;44.534;18.700;2023-04-28T01:57:48;28.45;;;17.85;;
25511;SDS011;13414;44.534;18.700;2023-04-28T02:00:18;33.03;;;18.00;;
25511;SDS011;13414;44.534;18.700;2023-04-28T02:02:50;29.35;;;18.10;;
25511;SDS011;13414;44.534;18.700;2023-04-28T02:05:17;25.13;;;17.40;;
25511;SDS011;13414;44.534;18.700;2023-04-28T02:07:46;26.98;;;17.02;;
25511;SDS011;13414;44.534;18.700;2023-04-28T02:10:14;27.25;;;17.90;;
25511;SDS011;13414;44.534;18.700;2023-04-28T02:12:42;24.60;;;15.32;;
25511;SDS011;13414;44.534;18.700;2023-04-28T02:15:10;24.88;;;16.85;;
25511;SDS011;13414;44.534;18.700;2023-04-28T02:17:39;25.98;;;17.00;;
25511;SDS011;13414;44.534;18.700;2023-04-28T02:20:07;33.05;;;19.50;;
25511;SDS011;13414;44.534;18.700;2023-04-28T02:22:35;30.33;;;21.17;;
25511;SDS011;13414;44.534;18.700;2023-04-28T02:25:04;26.20;;;14.77;;
25511;SDS011;13414;44.534;18.700;2023-04-28T02:27:36;25.98;;;15.50;;
25511;SDS011;13414;44.534;18.700;2023-04-28T02:30:04;26.55;;;15.20;;
25511;SDS011;13414;44.534;18.700;2023-04-28T02:32:32;26.13;;;15.13;;
25511;SDS011;13414;44.534;18.700;2023-04-28T02:35:01;25.58;;;14.57;;
25511;SDS011;13414;44.534;18.700;2023-04-28T02:37:29;24.15;;;13.02;;
25511;SDS011;13414;44.534;18.700;2023-04-28T02:39:57;25.02;;;14.65;;
25511;SDS011;13414;44.534;18.700;2023-04-28T02:42:24;26.23;;;16.75;;
25511;SDS011;13414;44.534;18.700;2023-04-28T02:44:52;27.83;;;17.30;;
25511;SDS011;13414;44.534;18.700;2023-04-28T02:47:19;32.55;;;17.67;;
25511;SDS011;13414;44.534;18.700;2023-04-28T02:49:47;25.33;;;17.02;;
25511;SDS011;13414;44.534;18.700;2023-04-28T02:52:16;26.30;;;17.50;;
25511;SDS011;13414;44.534;18.700;2023-04-28T02:54:44;31.40;;;18.90;;
25511;SDS011;13414;44.534;18.700;2023-04-28T02:57:14;29.60;;;18.98;;
25511;SDS011;13414;44.534;18.700;2023-04-28T02:59:41;22.83;;;15.13;;
25511;SDS011;13414;44.534;18.700;2023-04-28T03:02:09;24.77;;;15.88;;
25511;SDS011;13414;44.534;18.700;2023-04-28T03:04:37;24.92;;;15.40;;
25511;SDS011;13414;44.534;18.700;2023-04-28T03:07:04;25.98;;;16.75;;
25511;SDS011;13414;44.534;18.700;2023-04-28T03:09:33;22.75;;;15.98;;
25511;SDS011;13414;44.534;18.700;2023-04-28T03:12:00;23.15;;;15.65;;
25511;SDS011;13414;44.534;18.700;2023-04-28T03:14:30;28.08;;;17.35;;
25511;SDS011;13414;44.534;18.700;2023-04-28T03:16:58;24.20;;;16.10;;
25511;SDS011;13414;44.534;18.700;2023-04-28T03:19:25;25.67;;;17.02;;
25511;SDS011;13414;44.534;18.700;2023-04-28T03:21:53;25.25;;;17.20;;
25511;SDS011;13414;44.534;18.700;2023-04-28T03:24:20;25.20;;;16.25;;
25511;SDS011;13414;44.534;18.700;2023-04-28T03:26:52;25.42;;;17.60;;
25511;SDS011;13414;44.534;18.700;2023-04-28T03:29:20;29.60;;;16.85;;
25511;SDS011;13414;44.534;18.700;2023-04-28T03:31:50;27.05;;;17.35;;
25511;SDS011;13414;44.534;18.700;2023-04-28T03:34:18;26.02;;;16.27;;
25511;SDS011;13414;44.534;18.700;2023-04-28T03:36:46;27.95;;;17.23;;
25511;SDS011;13414;44.534;18.700;2023-04-28T03:39:22;22.30;;;15.18;;
25511;SDS011;13414;44.534;18.700;2023-04-28T03:41:50;25.98;;;16.77;;
25511;SDS011;13414;44.534;18.700;2023-04-28T03:44:39;27.10;;;16.55;;
25511;SDS011;13414;44.534;18.700;2023-04-28T03:47:07;27.73;;;18.25;;
25511;SDS011;13414;44.534;18.700;2023-04-28T03:49:36;27.83;;;17.85;;
25511;SDS011;13414;44.534;18.700;2023-04-28T03:52:03;25.65;;;16.77;;
25511;SDS011;13414;44.534;18.700;2023-04-28T03:54:31;23.38;;;15.82;;
25511;SDS011;13414;44.534;18.700;2023-04-28T03:56:59;26.65;;;16.15;;
25511;SDS011;13414;44.534;18.700;2023-04-28T03:59:27;24.45;;;16.83;;
25511;SDS011;13414;44.534;18.700;2023-04-28T04:01:55;26.90;;;15.50;;
25511;SDS011;13414;44.534;18.700;2023-04-28T04:04:23;21.52;;;14.68;;
25511;SDS011;13414;44.534;18.700;2023-04-28T04:06:51;21.60;;;14.45;;
25511;SDS011;13414;44.534;18.700;2023-04-28T04:09:18;25.70;;;15.10;;
25511;SDS011;13414;44.534;18.700;2023-04-28T04:11:46;24.77;;;13.82;;
25511;SDS011;13414;44.534;18.700;2023-04-28T04:14:13;25.05;;;16.00;;
25511;SDS011;13414;44.534;18.700;2023-04-28T04:16:41;25.35;;;14.80;;
25511;SDS011;13414;44.534;18.700;2023-04-28T04:19:10;24.98;;;15.68;;
25511;SDS011;13414;44.534;18.700;2023-04-28T04:21:42;24.08;;;15.32;;
25511;SDS011;13414;44.534;18.700;2023-04-28T04:24:10;28.45;;;15.82;;
25511;SDS011;13414;44.534;18.700;2023-04-28T04:26:37;25.55;;;16.20;;
25511;SDS011;13414;44.534;18.700;2023-04-28T04:29:21;24.75;;;15.80;;
25511;SDS011;13414;44.534;18.700;2023-04-28T04:31:50;26.25;;;16.88;;
25511;SDS011;13414;44.534;18.700;2023-04-28T04:34:19;39.63;;;20.40;;
25511;SDS011;13414;44.534;18.700;2023-04-28T04:36:48;30.38;;;18.45;;
25511;SDS011;13414;44.534;18.700;2023-04-28T04:39:16;30.08;;;19.48;;
25511;SDS011;13414;44.534;18.700;2023-04-28T04:41:44;32.63;;;19.52;;
25511;SDS011;13414;44.534;18.700;2023-04-28T04:44:32;29.10;;;18.85;;
25511;SDS011;13414;44.534;18.700;2023-04-28T04:47:00;34.80;;;18.75;;
25511;SDS011;13414;44.534;18.700;2023-04-28T04:49:30;27.20;;;17.42;;
25511;SDS011;13414;44.534;18.700;2023-04-28T04:51:58;30.10;;;19.02;;
25511;SDS011;13414;44.534;18.700;2023-04-28T04:54:26;32.10;;;17.95;;
25511;SDS011;13414;44.534;18.700;2023-04-28T04:56:54;28.75;;;18.85;;
25511;SDS011;13414;44.534;18.700;2023-04-28T04:59:42;31.25;;;18.90;;
25511;SDS011;13414;44.534;18.700;2023-04-28T05:02:14;27.17;;;16.42;;
25511;SDS011;13414;44.534;18.700;2023-04-28T05:04:43;32.53;;;17.05;;
25511;SDS011;13414;44.534;18.700;2023-04-28T05:07:13;32.15;;;18.98;;
25511;SDS011;13414;44.534;18.700;2023-04-28T05:09:42;32.47;;;17.85;;
25511;SDS011;13414;44.534;18.700;2023-04-28T05:12:10;25.60;;;16.35;;
25511;SDS011;13414;44.534;18.700;2023-04-28T05:14:37;33.50;;;19.35;;
25511;SDS011;13414;44.534;18.700;2023-04-28T05:17:05;32.00;;;19.63;;
25511;SDS011;13414;44.534;18.700;2023-04-28T05:19:36;28.70;;;18.27;;
25511;SDS011;13414;44.534;18.700;2023-04-28T05:22:05;32.10;;;17.63;;
25511;SDS011;13414;44.534;18.700;2023-04-28T05:24:35;26.40;;;14.23;;
25511;SDS011;13414;44.534;18.700;2023-04-28T05:27:02;29.30;;;17.60;;
25511;SDS011;13414;44.534;18.700;2023-04-28T05:29:30;28.90;;;16.23;;
25511;SDS011;13414;44.534;18.700;2023-04-28T05:31:57;28.23;;;14.68;;
25511;SDS011;13414;44.534;18.700;2023-04-28T05:34:25;21.90;;;14.57;;
25511;SDS011;13414;44.534;18.700;2023-04-28T05:36:52;20.38;;;12.82;;
25511;SDS011;13414;44.534;18.700;2023-04-28T05:39:25;24.80;;;14.63;;
25511;SDS011;13414;44.534;18.700;2023-04-28T05:41:54;26.58;;;17.27;;
25511;SDS011;13414;44.534;18.700;2023-04-28T05:44:23;23.58;;;13.80;;
25511;SDS011;13414;44.534;18.700;2023-04-28T05:46:51;24.35;;;14.38;;
25511;SDS011;13414;44.534;18.700;2023-04-28T05:49:23;20.13;;;12.43;;
25511;SDS011;13414;44.534;18.700;2023-04-28T05:51:51;24.85;;;16.25;;
25511;SDS011;13414;44.534;18.700;2023-04-28T05:54:19;25.15;;;16.05;;
25511;SDS011;13414;44.534;18.700;2023-04-28T05:56:51;26.45;;;13.75;;
25511;SDS011;13414;44.534;18.700;2023-04-28T05:59:19;28.70;;;12.25;;
25511;SDS011;13414;44.534;18.700;2023-04-28T06:01:46;25.50;;;12.57;;
25511;SDS011;13414;44.534;18.700;2023-04-28T06:04:15;30.73;;;13.13;;
25511;SDS011;13414;44.534;18.700;2023-04-28T06:06:42;21.75;;;11.95;;
25511;SDS011;13414;44.534;18.700;2023-04-28T06:09:10;23.95;;;11.57;;
25511;SDS011;13414;44.534;18.700;2023-04-28T06:11:37;23.60;;;11.27;;
25511;SDS011;13414;44.534;18.700;2023-04-28T06:14:07;39.13;;;14.27;;
25511;SDS011;13414;44.534;18.700;2023-04-28T06:16:35;63.63;;;21.95;;
25511;SDS011;13414;44.534;18.700;2023-04-28T06:19:03;37.08;;;14.85;;
25511;SDS011;13414;44.534;18.700;2023-04-28T06:21:32;25.38;;;13.88;;
25511;SDS011;13414;44.534;18.700;2023-04-28T06:24:01;30.83;;;14.63;;
25511;SDS011;13414;44.534;18.700;2023-04-28T06:26:29;23.02;;;13.68;;
25511;SDS011;13414;44.534;18.700;2023-04-28T06:28:57;55.17;;;31.23;;
25511;SDS011;13414;44.534;18.700;2023-04-28T06:31:26;32.70;;;15.55;;
25511;SDS011;13414;44.534;18.700;2023-04-28T06:33:55;26.98;;;13.30;;
25511;SDS011;13414;44.534;18.700;2023-04-28T06:36:23;27.25;;;14.35;;
25511;SDS011;13414;44.534;18.700;2023-04-28T06:38:51;26.98;;;12.65;;
25511;SDS011;13414;44.534;18.700;2023-04-28T06:41:18;26.98;;;12.18;;
25511;SDS011;13414;44.534;18.700;2023-04-28T06:43:49;28.33;;;12.18;;
25511;SDS011;13414;44.534;18.700;2023-04-28T06:46:26;17.02;;;9.75;;
25511;SDS011;13414;44.534;18.700;2023-04-28T06:48:54;17.50;;;8.27;;
25511;SDS011;13414;44.534;18.700;2023-04-28T06:51:21;16.67;;;8.45;;
25511;SDS011;13414;44.534;18.700;2023-04-28T06:53:49;13.45;;;7.55;;
25511;SDS011;13414;44.534;18.700;2023-04-28T06:56:17;13.32;;;6.57;;
25511;SDS011;13414;44.534;18.700;2023-04-28T06:58:51;13.70;;;8.45;;
25511;SDS011;13414;44.534;18.700;2023-04-28T07:01:20;14.98;;;7.68;;
25511;SDS011;13414;44.534;18.700;2023-04-28T07:03:49;12.38;;;8.68;;
25511;SDS011;13414;44.534;18.700;2023-04-28T07:06:22;14.05;;;7.65;;
25511;SDS011;13414;44.534;18.700;2023-04-28T07:08:51;15.43;;;7.80;;
25511;SDS011;13414;44.534;18.700;2023-04-28T07:11:19;17.98;;;7.95;;
25511;SDS011;13414;44.534;18.700;2023-04-28T07:13:48;15.88;;;7.28;;
25511;SDS011;13414;44.534;18.700;2023-04-28T07:16:16;14.77;;;6.68;;
25511;SDS011;13414;44.534;18.700;2023-04-28T07:18:45;14.25;;;7.13;;
25511;SDS011;13414;44.534;18.700;2023-04-28T07:21:14;16.73;;;7.45;;
25511;SDS011;13414;44.534;18.700;2023-04-28T07:23:41;13.50;;;7.45;;
25511;SDS011;13414;44.534;18.700;2023-04-28T07:26:10;12.25;;;6.88;;
25511;SDS011;13414;44.534;18.700;2023-04-28T07:28:40;14.52;;;7.45;;
25511;SDS011;13414;44.534;18.700;2023-04-28T07:31:08;13.10;;;6.80;;
25511;SDS011;13414;44.534;18.700;2023-04-28T07:33:35;11.77;;;6.95;;
25511;SDS011;13414;44.534;18.700;2023-04-28T07:36:03;14.07;;;6.82;;
25511;SDS011;13414;44.534;18.700;2023-04-28T07:38:33;13.05;;;7.35;;
25511;SDS011;13414;44.534;18.700;2023-04-28T07:41:01;11.38;;;6.72;;
25511;SDS011;13414;44.534;18.700;2023-04-28T07:43:29;12.70;;;7.32;;
25511;SDS011;13414;44.534;18.700;2023-04-28T07:45:56;12.43;;;7.32;;
25511;SDS011;13414;44.534;18.700;2023-04-28T07:48:24;17.27;;;11.88;;
25511;SDS011;13414;44.534;18.700;2023-04-28T07:50:51;14.80;;;8.63;;
25511;SDS011;13414;44.534;18.700;2023-04-28T07:53:19;14.38;;;8.27;;
25511;SDS011;13414;44.534;18.700;2023-04-28T07:55:48;20.27;;;11.45;;
25511;SDS011;13414;44.534;18.700;2023-04-28T07:58:15;19.00;;;11.73;;
25511;SDS011;13414;44.534;18.700;2023-04-28T08:00:43;23.73;;;11.98;;
25511;SDS011;13414;44.534;18.700;2023-04-28T08:03:10;16.55;;;10.40;;
25511;SDS011;13414;44.534;18.700;2023-04-28T08:05:38;19.65;;;10.25;;
25511;SDS011;13414;44.534;18.700;2023-04-28T08:08:05;22.30;;;12.80;;
25511;SDS011;13414;44.534;18.700;2023-04-28T08:10:33;8.43;;;5.28;;
25511;SDS011;13414;44.534;18.700;2023-04-28T08:13:02;9.38;;;4.15;;
25511;SDS011;13414;44.534;18.700;2023-04-28T08:15:29;14.18;;;3.92;;
25511;SDS011;13414;44.534;18.700;2023-04-28T08:17:56;5.72;;;2.72;;
25511;SDS011;13414;44.534;18.700;2023-04-28T08:20:24;9.80;;;2.60;;
25511;SDS011;13414;44.534;18.700;2023-04-28T08:22:52;7.30;;;3.35;;
25511;SDS011;13414;44.534;18.700;2023-04-28T08:25:19;7.65;;;3.45;;
25511;SDS011;13414;44.534;18.700;2023-04-28T08:27:47;5.93;;;3.10;;
25511;SDS011;13414;44.534;18.700;2023-04-28T08:30:16;10.82;;;3.72;;
25511;SDS011;13414;44.534;18.700;2023-04-28T08:32:43;4.82;;;2.28;;
25511;SDS011;13414;44.534;18.700;2023-04-28T08:35:10;11.05;;;3.50;;
25511;SDS011;13414;44.534;18.700;2023-04-28T08:37:39;8.60;;;3.10;;
25511;SDS011;13414;44.534;18.700;2023-04-28T08:40:09;9.82;;;3.05;;
25511;SDS011;13414;44.534;18.700;2023-04-28T08:42:36;6.13;;;3.03;;
25511;SDS011;13414;44.534;18.700;2023-04-28T08:45:04;8.18;;;3.47;;
25511;SDS011;13414;44.534;18.700;2023-04-28T08:47:35;6.95;;;3.20;;
25511;SDS011;13414;44.534;18.700;2023-04-28T08:50:05;5.93;;;2.40;;
25511;SDS011;13414;44.534;18.700;2023-04-28T08:52:33;8.23;;;2.97;;
25511;SDS011;13414;44.534;18.700;2023-04-28T08:55:04;10.32;;;3.58;;
25511;SDS011;13414;44.534;18.700;2023-04-28T08:57:34;7.97;;;3.40;;
25511;SDS011;13414;44.534;18.700;2023-04-28T09:00:05;7.20;;;3.50;;
25511;SDS011;13414;44.534;18.700;2023-04-28T09:02:34;10.70;;;4.68;;
25511;SDS011;13414;44.534;18.700;2023-04-28T09:05:06;7.93;;;3.50;;
25511;SDS011;13414;44.534;18.700;2023-04-28T09:07:34;7.20;;;2.97;;
25511;SDS011;13414;44.534;18.700;2023-04-28T09:10:15;7.50;;;2.72;;
25511;SDS011;13414;44.534;18.700;2023-04-28T09:12:44;5.75;;;2.53;;
25511;SDS011;13414;44.534;18.700;2023-04-28T09:15:24;8.38;;;3.72;;
25511;SDS011;13414;44.534;18.700;2023-04-28T09:17:54;8.50;;;2.63;;
25511;SDS011;13414;44.534;18.700;2023-04-28T09:20:22;7.65;;;3.25;;
25511;SDS011;13414;44.534;18.700;2023-04-28T09:22:52;6.07;;;3.00;;
25511;SDS011;13414;44.534;18.700;2023-04-28T09:25:21;6.65;;;3.03;;
25511;SDS011;13414;44.534;18.700;2023-04-28T09:27:51;6.80;;;2.42;;
25511;SDS011;13414;44.534;18.700;2023-04-28T09:30:19;6.97;;;3.10;;
25511;SDS011;13414;44.534;18.700;2023-04-28T09:35:40;7.60;;;3.33;;
25511;SDS011;13414;44.534;18.700;2023-04-28T09:38:09;11.13;;;3.80;;
25511;SDS011;13414;44.534;18.700;2023-04-28T09:40:50;7.10;;;3.97;;
25511;SDS011;13414;44.534;18.700;2023-04-28T09:43:23;5.75;;;2.78;;
25511;SDS011;13414;44.534;18.700;2023-04-28T09:45:51;6.43;;;2.80;;
25511;SDS011;13414;44.534;18.700;2023-04-28T09:48:26;7.28;;;2.80;;
25511;SDS011;13414;44.534;18.700;2023-04-28T09:50:56;8.80;;;4.43;;
25511;SDS011;13414;44.534;18.700;2023-04-28T09:53:25;4.97;;;2.70;;
25511;SDS011;13414;44.534;18.700;2023-04-28T09:55:53;5.10;;;2.28;;
25511;SDS011;13414;44.534;18.700;2023-04-28T09:58:21;7.50;;;4.38;;
25511;SDS011;13414;44.534;18.700;2023-04-28T10:00:51;7.45;;;2.97;;
25511;SDS011;13414;44.534;18.700;2023-04-28T10:03:20;9.57;;;2.70;;
25511;SDS011;13414;44.534;18.700;2023-04-28T10:05:50;4.65;;;2.30;;
25511;SDS011;13414;44.534;18.700;2023-04-28T10:08:19;8.40;;;3.50;;
25511;SDS011;13414;44.534;18.700;2023-04-28T10:10:47;9.80;;;3.35;;
25511;SDS011;13414;44.534;18.700;2023-04-28T10:13:17;5.68;;;3.70;;
25511;SDS011;13414;44.534;18.700;2023-04-28T10:15:45;6.30;;;2.60;;
25511;SDS011;13414;44.534;18.700;2023-04-28T10:18:13;5.43;;;2.42;;
25511;SDS011;13414;44.534;18.700;2023-04-28T10:20:41;4.68;;;2.53;;
25511;SDS011;13414;44.534;18.700;2023-04-28T10:23:36;7.40;;;3.63;;
25511;SDS011;13414;44.534;18.700;2023-04-28T10:29:27;7.75;;;2.60;;
25511;SDS011;13414;44.534;18.700;2023-04-28T10:34:44;6.05;;;2.70;;
25511;SDS011;13414;44.534;18.700;2023-04-28T10:37:12;5.75;;;2.65;;
25511;SDS011;13414;44.534;18.700;2023-04-28T10:42:53;4.78;;;2.63;;
25511;SDS011;13414;44.534;18.700;2023-04-28T10:51:28;6.72;;;3.50;;
25511;SDS011;13414;44.534;18.700;2023-04-28T10:56:34;8.13;;;3.65;;
25511;SDS011;13414;44.534;18.700;2023-04-28T10:59:23;6.13;;;2.88;;
25511;SDS011;13414;44.534;18.700;2023-04-28T11:01:52;5.35;;;2.38;;
25511;SDS011;13414;44.534;18.700;2023-04-28T11:04:19;5.82;;;2.65;;
25511;SDS011;13414;44.534;18.700;2023-04-28T11:09:48;7.72;;;3.35;;
25511;SDS011;13414;44.534;18.700;2023-04-28T11:12:17;8.73;;;4.10;;
25511;SDS011;13414;44.534;18.700;2023-04-28T11:14:46;7.00;;;2.70;;
25511;SDS011;13414;44.534;18.700;2023-04-28T11:17:17;8.60;;;3.70;;
25511;SDS011;13414;44.534;18.700;2023-04-28T11:20:06;5.70;;;2.25;;
25511;SDS011;13414;44.534;18.700;2023-04-28T11:22:39;9.15;;;4.78;;
25511;SDS011;13414;44.534;18.700;2023-04-28T11:25:08;5.53;;;2.63;;
25511;SDS011;13414;44.534;18.700;2023-04-28T11:27:35;7.95;;;5.03;;
25511;SDS011;13414;44.534;18.700;2023-04-28T11:30:18;5.05;;;2.97;;
25511;SDS011;13414;44.534;18.700;2023-04-28T11:32:48;10.93;;;7.65;;
25511;SDS011;13414;44.534;18.700;2023-04-28T11:35:16;6.05;;;2.30;;
25511;SDS011;13414;44.534;18.700;2023-04-28T11:37:44;6.40;;;3.20;;
25511;SDS011;13414;44.534;18.700;2023-04-28T11:40:12;8.85;;;4.75;;
25511;SDS011;13414;44.534;18.700;2023-04-28T11:42:46;4.47;;;2.50;;
25511;SDS011;13414;44.534;18.700;2023-04-28T11:45:15;4.15;;;1.85;;
25511;SDS011;13414;44.534;18.700;2023-04-28T11:47:43;7.00;;;2.35;;
25511;SDS011;13414;44.534;18.700;2023-04-28T11:50:10;6.93;;;3.05;;
25511;SDS011;13414;44.534;18.700;2023-04-28T11:52:47;5.30;;;2.30;;
25511;SDS011;13414;44.534;18.700;2023-04-28T11:55:15;8.05;;;3.50;;
25511;SDS011;13414;44.534;18.700;2023-04-28T11:57:42;3.75;;;1.98;;
25511;SDS011;13414;44.534;18.700;2023-04-28T12:00:10;6.22;;;2.45;;
25511;SDS011;13414;44.534;18.700;2023-04-28T12:02:44;7.18;;;4.07;;
25511;SDS011;13414;44.534;18.700;2023-04-28T12:05:14;8.00;;;5.47;;
25511;SDS011;13414;44.534;18.700;2023-04-28T12:07:41;6.80;;;2.65;;
25511;SDS011;13414;44.534;18.700;2023-04-28T12:10:11;7.20;;;3.20;;
25511;SDS011;13414;44.534;18.700;2023-04-28T12:12:40;6.20;;;3.10;;
25511;SDS011;13414;44.534;18.700;2023-04-28T12:15:08;5.57;;;2.55;;
25511;SDS011;13414;44.534;18.700;2023-04-28T12:17:36;6.50;;;2.33;;
25511;SDS011;13414;44.534;18.700;2023-04-28T12:20:08;6.07;;;2.63;;
25511;SDS011;13414;44.534;18.700;2023-04-28T12:22:43;5.13;;;1.95;;
25511;SDS011;13414;44.534;18.700;2023-04-28T12:25:12;5.78;;;2.30;;
25511;SDS011;13414;44.534;18.700;2023-04-28T12:27:57;4.35;;;2.08;;
25511;SDS011;13414;44.534;18.700;2023-04-28T12:30:27;4.65;;;1.98;;
25511;SDS011;13414;44.534;18.700;2023-04-28T12:32:55;5.10;;;2.13;;
25511;SDS011;13414;44.534;18.700;2023-04-28T12:35:25;4.80;;;2.35;;
25511;SDS011;13414;44.534;18.700;2023-04-28T12:37:54;5.45;;;2.20;;
25511;SDS011;13414;44.534;18.700;2023-04-28T12:40:23;5.65;;;2.65;;
25511;SDS011;13414;44.534;18.700;2023-04-28T12:42:51;3.53;;;1.90;;
25511;SDS011;13414;44.534;18.700;2023-04-28T12:45:19;4.70;;;2.05;;
25511;SDS011;13414;44.534;18.700;2023-04-28T12:47:46;3.85;;;2.00;;
25511;SDS011;13414;44.534;18.700;2023-04-28T12:50:13;5.18;;;2.03;;
25511;SDS011;13414;44.534;18.700;2023-04-28T12:52:42;6.40;;;2.47;;
25511;SDS011;13414;44.534;18.700;2023-04-28T12:55:10;3.53;;;2.00;;
25511;SDS011;13414;44.534;18.700;2023-04-28T12:57:37;4.70;;;2.00;;
25511;SDS011;13414;44.534;18.700;2023-04-28T13:00:06;4.50;;;2.10;;
25511;SDS011;13414;44.534;18.700;2023-04-28T13:02:34;6.07;;;2.20;;
25511;SDS011;13414;44.534;18.700;2023-04-28T13:05:02;4.65;;;2.08;;
25511;SDS011;13414;44.534;18.700;2023-04-28T13:07:30;4.20;;;2.13;;
25511;SDS011;13414;44.534;18.700;2023-04-28T13:10:01;9.32;;;6.10;;
25511;SDS011;13414;44.534;18.700;2023-04-28T13:12:28;4.10;;;2.05;;
25511;SDS011;13414;44.534;18.700;2023-04-28T13:14:57;4.63;;;2.38;;
25511;SDS011;13414;44.534;18.700;2023-04-28T13:17:26;4.88;;;2.20;;
25511;SDS011;13414;44.534;18.700;2023-04-28T13:19:54;3.17;;;1.58;;
25511;SDS011;13414;44.534;18.700;2023-04-28T13:22:21;3.67;;;2.00;;
25511;SDS011;13414;44.534;18.700;2023-04-28T13:24:49;2.92;;;1.77;;
25511;SDS011;13414;44.534;18.700;2023-04-28T13:27:18;4.47;;;2.10;;
25511;SDS011;13414;44.534;18.700;2023-04-28T13:29:45;4.43;;;2.20;;
25511;SDS011;13414;44.534;18.700;2023-04-28T13:32:12;9.38;;;3.78;;
25511;SDS011;13414;44.534;18.700;2023-04-28T13:34:40;3.95;;;1.80;;
25511;SDS011;13414;44.534;18.700;2023-04-28T13:37:08;5.10;;;2.50;;
25511;SDS011;13414;44.534;18.700;2023-04-28T13:39:35;9.40;;;4.90;;
25511;SDS011;13414;44.534;18.700;2023-04-28T13:42:03;6.80;;;2.72;;
25511;SDS011;13414;44.534;18.700;2023-04-28T13:44:32;6.80;;;2.80;;
25511;SDS011;13414;44.534;18.700;2023-04-28T13:47:00;5.88;;;2.40;;
25511;SDS011;13414;44.534;18.700;2023-04-28T13:49:27;6.30;;;2.92;;
25511;SDS011;13414;44.534;18.700;2023-04-28T13:51:55;5.35;;;2.50;;
25511;SDS011;13414;44.534;18.700;2023-04-28T13:54:22;4.90;;;2.28;;
25511;SDS011;13414;44.534;18.700;2023-04-28T13:56:49;5.50;;;2.40;;
25511;SDS011;13414;44.534;18.700;2023-04-28T13:59:17;3.90;;;2.08;;
25511;SDS011;13414;44.534;18.700;2023-04-28T14:01:46;3.83;;;1.67;;
25511;SDS011;13414;44.534;18.700;2023-04-28T14:04:13;9.32;;;5.47;;
25511;SDS011;13414;44.534;18.700;2023-04-28T14:06:40;9.30;;;4.95;;
25511;SDS011;13414;44.534;18.700;2023-04-28T14:09:08;5.53;;;3.30;;
25511;SDS011;13414;44.534;18.700;2023-04-28T14:11:36;6.20;;;2.20;;
25511;SDS011;13414;44.534;18.700;2023-04-28T14:14:04;5.13;;;2.35;;
25511;SDS011;13414;44.534;18.700;2023-04-28T14:16:31;4.13;;;1.95;;
25511;SDS011;13414;44.534;18.700;2023-04-28T14:19:00;4.43;;;2.33;;
25511;SDS011;13414;44.534;18.700;2023-04-28T14:21:27;5.30;;;2.30;;
25511;SDS011;13414;44.534;18.700;2023-04-28T14:23:55;4.88;;;2.85;;
25511;SDS011;13414;44.534;18.700;2023-04-28T14:26:22;5.85;;;2.17;;
25511;SDS011;13414;44.534;18.700;2023-04-28T14:28:50;4.30;;;2.10;;
25511;SDS011;13414;44.534;18.700;2023-04-28T14:31:18;4.20;;;1.70;;
25511;SDS011;13414;44.534;18.700;2023-04-28T14:33:45;5.32;;;2.08;;
25511;SDS011;13414;44.534;18.700;2023-04-28T14:36:14;2.60;;;1.50;;
25511;SDS011;13414;44.534;18.700;2023-04-28T14:38:42;4.30;;;2.65;;
25511;SDS011;13414;44.534;18.700;2023-04-28T14:41:09;2.95;;;1.60;;
25511;SDS011;13414;44.534;18.700;2023-04-28T14:43:37;5.82;;;2.08;;
25511;SDS011;13414;44.534;18.700;2023-04-28T14:46:04;6.53;;;2.00;;
25511;SDS011;13414;44.534;18.700;2023-04-28T14:48:32;4.97;;;2.85;;
25511;SDS011;13414;44.534;18.700;2023-04-28T14:51:03;5.13;;;2.00;;
25511;SDS011;13414;44.534;18.700;2023-04-28T14:53:32;6.40;;;1.95;;
25511;SDS011;13414;44.534;18.700;2023-04-28T14:55:59;3.80;;;2.08;;